createdAt,value
2022-10-29T00:02:13.522Z,100600.73
2022-10-29T00:07:34.041Z,100608.54
2022-10-29T00:12:37.228Z,100605.71
2022-10-29T00:17:40.416Z,100601.36
2022-10-29T00:22:43.583Z,100594.38
2022-10-29T00:27:46.646Z,100595.20
2022-10-29T00:32:50.044Z,100596.91
2022-10-29T00:38:10.861Z,100586.52
2022-10-29T00:43:16.409Z,100586.92
2022-10-29T00:48:21.176Z,100590.98
2022-10-29T00:53:48.251Z,100595.92
2022-10-29T00:59:10.310Z,100591.32
2022-10-29T01:04:14.235Z,100593.70
2022-10-29T01:09:17.298Z,100590.50
2022-10-29T01:14:35.595Z,100580.30
2022-10-29T01:20:08.443Z,100564.49
2022-10-29T01:25:36.653Z,100545.61
2022-10-29T01:31:00.908Z,100541.50
2022-10-29T01:36:32.920Z,100532.73
2022-10-29T01:41:51.047Z,100526.27
2022-10-29T01:47:19.482Z,100517.92
2022-10-29T01:52:41.729Z,100510.64
2022-10-29T01:57:44.837Z,100499.16
2022-10-29T02:03:00.628Z,100492.58
2022-10-29T02:08:11.832Z,100499.73
2022-10-29T02:13:17.969Z,100499.02
2022-10-29T02:18:47.369Z,100497.30
2022-10-29T02:23:51.136Z,100484.42
2022-10-29T02:29:11.832Z,100486.69
2022-10-29T02:34:15.003Z,100487.20
2022-10-29T02:39:36.407Z,100471.64
2022-10-29T02:44:57.053Z,100468.81
2022-10-29T02:50:17.986Z,100469.15
2022-10-29T02:55:21.135Z,100468.48
2022-10-29T03:00:24.281Z,100477.55
2022-10-29T03:05:27.419Z,100478.91
2022-10-29T03:10:30.494Z,100485.38
2022-10-29T03:15:33.631Z,100486.23
2022-10-29T03:20:36.798Z,100489.02
2022-10-29T03:25:57.759Z,100484.50
2022-10-29T03:31:00.857Z,100476.81
2022-10-29T03:36:07.133Z,100479.04
2022-10-29T03:41:11.125Z,100465.09
2022-10-29T03:46:14.304Z,100461.08
2022-10-29T03:51:17.618Z,100471.34
2022-10-29T03:56:20.693Z,100474.98
2022-10-29T04:01:24.183Z,100465.77
2022-10-29T04:06:27.418Z,100475.41
2022-10-29T04:11:48.392Z,100472.52
2022-10-29T04:16:51.485Z,100469.27
2022-10-29T04:32:40.864Z,100458.04
2022-10-29T04:38:09.207Z,100455.05
2022-10-29T04:43:15.545Z,100460.27
2022-10-29T04:48:36.417Z,100456.77
2022-10-29T04:53:40.568Z,100457.78
2022-10-29T04:58:43.809Z,100456.84
2022-10-29T05:03:46.962Z,100462.34
2022-10-29T05:08:50.061Z,100462.42
2022-10-29T05:13:53.223Z,100462.54
2022-10-29T05:18:56.373Z,100467.92
2022-10-29T05:23:59.517Z,100488.11
2022-10-29T05:29:02.878Z,100495.59
2022-10-29T05:34:24.193Z,100492.98
2022-10-29T05:39:27.407Z,100494.00
2022-10-29T05:44:30.574Z,100484.18
2022-10-29T05:49:33.764Z,100479.30
2022-10-29T05:54:36.877Z,100480.39
2022-10-29T05:59:40.053Z,100472.80
2022-10-29T06:05:00.857Z,100464.38
2022-10-29T06:10:04.422Z,100458.27
2022-10-29T06:15:08.251Z,100471.82
2022-10-29T06:20:14.082Z,100483.53
2022-10-29T06:25:17.547Z,100487.98
2022-10-29T06:30:20.714Z,100492.13
2022-10-29T06:35:24.530Z,100486.20
2022-10-29T06:40:27.691Z,100478.67
2022-10-29T06:45:31.907Z,100472.45
2022-10-29T06:50:35.414Z,100472.21
2022-10-29T06:55:39.194Z,100487.52
2022-10-29T07:01:03.316Z,100497.63
2022-10-29T07:06:06.980Z,100501.14
2022-10-29T07:11:10.141Z,100507.11
2022-10-29T07:16:13.666Z,100516.59
2022-10-29T07:21:16.962Z,100535.69
2022-10-29T07:26:20.198Z,100532.95
2022-10-29T07:31:25.150Z,100534.95
2022-10-29T07:36:31.503Z,100543.08
2022-10-29T07:41:34.812Z,100540.55
2022-10-29T07:46:38.039Z,100526.90
2022-10-29T07:51:42.603Z,100527.08
2022-10-29T07:56:47.753Z,100533.52
2022-10-29T08:01:51.222Z,100532.31
2022-10-29T08:06:54.441Z,100533.37
2022-10-29T08:11:57.510Z,100535.46
2022-10-29T08:17:00.774Z,100542.09
2022-10-29T08:22:04.550Z,100544.20
2022-10-29T08:27:07.645Z,100551.05
2022-10-29T08:32:10.746Z,100552.52
2022-10-29T08:37:14.060Z,100550.20
2022-10-29T08:42:32.218Z,100544.59
2022-10-29T08:48:03.981Z,100560.55
2022-10-29T08:53:23.411Z,100562.58
2022-10-29T08:58:55.724Z,100562.29
2022-10-29T09:03:59.182Z,100566.20
2022-10-29T09:09:22.737Z,100583.01
2022-10-29T09:14:54.629Z,100576.73
2022-10-29T09:20:06.761Z,100569.23
2022-10-29T09:25:29.232Z,100574.70
2022-10-29T09:30:41.242Z,100573.19
2022-10-29T09:35:49.107Z,100578.89
2022-10-29T09:40:52.445Z,100574.45
2022-10-29T09:46:12.587Z,100567.85
2022-10-29T09:51:39.030Z,100581.02
2022-10-29T09:57:02.331Z,100586.49
2022-10-29T10:02:37.642Z,100579.21
2022-10-29T10:08:08.958Z,100584.66
2022-10-29T10:13:17.223Z,100581.85
2022-10-29T10:24:29.684Z,100583.43
2022-10-29T10:30:16.288Z,100578.17
2022-10-29T10:35:31.083Z,100576.39
2022-10-29T10:40:57.754Z,100583.36
2022-10-29T10:46:12.714Z,100593.15
2022-10-29T10:51:25.166Z,100601.56
2022-10-29T10:56:28.342Z,100599.98
2022-10-29T11:01:43.706Z,100596.48
2022-10-29T11:06:52.953Z,100601.20
2022-10-29T11:12:04.768Z,100599.23
2022-10-29T11:17:51.333Z,100586.54
2022-10-29T11:23:12.241Z,100588.65
2022-10-29T11:28:34.051Z,100599.56
2022-10-29T11:33:46.096Z,100609.80
2022-10-29T11:39:20.848Z,100612.96
2022-10-29T11:44:25.661Z,100611.36
2022-10-29T11:49:47.454Z,100604.67
2022-10-29T11:55:19.465Z,100606.30
2022-10-29T12:00:24.965Z,100612.63
2022-10-29T12:05:31.458Z,100613.36
2022-10-29T12:11:07.015Z,100616.02
2022-10-29T12:16:37.757Z,100616.90
2022-10-29T12:21:43.585Z,100605.83
2022-10-29T12:26:55.991Z,100606.71
2022-10-29T12:32:15.701Z,100606.02
2022-10-29T12:37:42.888Z,100597.95
2022-10-29T12:42:47.869Z,100605.52
2022-10-29T12:48:34.656Z,100609.73
2022-10-29T12:53:56.741Z,100613.42
2022-10-29T12:59:23.927Z,100616.05
2022-10-29T13:04:32.583Z,100618.14
2022-10-29T13:09:37.241Z,100619.55
2022-10-29T13:14:52.237Z,100616.73
2022-10-29T13:20:00.362Z,100627.56
2022-10-29T13:25:36.537Z,100630.88
2022-10-29T13:30:42.305Z,100631.84
2022-10-29T13:35:52.349Z,100640.36
2022-10-29T13:41:16.589Z,100656.75
2022-10-29T13:46:25.827Z,100661.73
2022-10-29T13:51:38.413Z,100661.79
2022-10-29T13:57:05.613Z,100658.21
2022-10-29T14:02:29.996Z,100650.45
2022-10-29T14:08:04.290Z,100644.07
2022-10-29T14:13:34.422Z,100640.98
2022-10-29T14:18:46.345Z,100646.14
2022-10-29T14:24:10.134Z,100651.27
2022-10-29T14:29:24.680Z,100653.78
2022-10-29T14:34:28.639Z,100657.89
2022-10-29T14:39:57.914Z,100657.08
2022-10-29T14:45:06.052Z,100655.88
2022-10-29T14:50:29.479Z,100655.40
2022-10-29T14:55:40.413Z,100653.02
2022-10-29T15:01:06.052Z,100643.30
2022-10-29T15:06:15.373Z,100650.36
2022-10-29T15:11:57.936Z,100657.92
2022-10-29T15:17:18.964Z,100659.67
2022-10-29T15:22:29.821Z,100660.05
2022-10-29T15:27:36.535Z,100652.95
2022-10-29T15:32:39.706Z,100650.39
2022-10-29T15:37:46.049Z,100649.08
2022-10-29T15:42:52.611Z,100651.27
2022-10-29T15:48:40.089Z,100653.61
2022-10-29T15:53:43.515Z,100660.79
2022-10-29T15:58:47.344Z,100660.84
2022-10-29T16:03:50.749Z,100665.42
2022-10-29T16:08:58.463Z,100667.17
2022-10-29T16:14:01.868Z,100669.52
2022-10-29T16:19:05.073Z,100677.86
2022-10-29T16:24:27.295Z,100678.40
2022-10-29T16:29:30.430Z,100676.20
2022-10-29T16:34:33.606Z,100681.06
2022-10-29T16:39:36.678Z,100684.14
2022-10-29T16:44:41.480Z,100686.98
2022-10-29T16:49:44.912Z,100689.52
2022-10-29T16:54:48.073Z,100694.14
2022-10-29T16:59:51.192Z,100696.73
2022-10-29T17:04:54.331Z,100694.25
2022-10-29T17:09:57.483Z,100688.79
2022-10-29T17:15:00.811Z,100696.26
2022-10-29T17:20:05.644Z,100698.02
2022-10-29T17:25:10.007Z,100693.34
2022-10-29T17:30:13.373Z,100698.58
2022-10-29T17:35:34.044Z,100701.69
2022-10-29T17:40:38.178Z,100693.14
2022-10-29T17:45:43.878Z,100685.08
2022-10-29T17:50:58.341Z,100695.93
2022-10-29T17:56:19.133Z,100694.75
2022-10-29T18:01:40.236Z,100695.83
2022-10-29T18:06:44.079Z,100701.41
2022-10-29T18:11:49.514Z,100712.85
2022-10-29T18:16:52.666Z,100724.94
2022-10-29T18:21:55.756Z,100729.03
2022-10-29T18:26:58.963Z,100742.66
2022-10-29T18:32:02.141Z,100732.13
2022-10-29T18:37:25.248Z,100718.42
2022-10-29T18:42:30.661Z,100717.19
2022-10-29T18:47:33.731Z,100719.36
2022-10-29T18:52:36.914Z,100719.36
2022-10-29T18:57:40.117Z,100719.59
2022-10-29T19:02:43.418Z,100715.66
2022-10-29T19:07:46.926Z,100708.77
2022-10-29T19:12:50.123Z,100722.94
2022-10-29T19:17:53.293Z,100725.17
2022-10-29T19:22:57.654Z,100726.66
2022-10-29T19:28:18.641Z,100721.84
2022-10-29T19:33:21.766Z,100706.27
2022-10-29T19:38:25.476Z,100703.91
2022-10-29T19:43:47.529Z,100707.72
2022-10-29T19:48:52.476Z,100709.14
2022-10-29T19:53:58.199Z,100708.50
2022-10-29T19:59:01.374Z,100712.65
2022-10-29T20:04:04.847Z,100713.41
2022-10-29T20:09:08.483Z,100719.33
2022-10-29T20:14:11.821Z,100734.35
2022-10-29T20:19:15.251Z,100744.44
2022-10-29T20:24:18.281Z,100738.35
2022-10-29T20:29:21.781Z,100735.27
2022-10-29T20:34:25.131Z,100741.39
2022-10-29T20:39:32.388Z,100742.25
2022-10-29T20:44:54.428Z,100752.02
2022-10-29T20:49:58.369Z,100754.59
2022-10-29T20:55:02.714Z,100759.20
2022-10-29T21:00:31.169Z,100751.60
2022-10-29T21:05:51.869Z,100745.58
2022-10-29T21:11:00.010Z,100747.80
2022-10-29T21:16:24.396Z,100747.16
2022-10-29T21:21:45.115Z,100743.10
2022-10-29T21:26:48.285Z,100734.13
2022-10-29T21:32:12.761Z,100738.85
2022-10-29T21:37:23.768Z,100735.13
2022-10-29T21:42:27.553Z,100728.68
2022-10-29T21:47:49.507Z,100719.58
2022-10-29T21:53:00.575Z,100722.70
2022-10-29T21:58:21.760Z,100722.83
2022-10-29T22:03:24.868Z,100719.55
2022-10-29T22:08:28.072Z,100714.02
2022-10-29T22:13:32.818Z,100714.42
2022-10-29T22:18:36.744Z,100714.52
2022-10-29T22:23:47.773Z,100717.95
2022-10-29T22:28:51.156Z,100718.13
2022-10-29T22:34:12.284Z,100716.19
2022-10-29T22:39:15.827Z,100709.18
2022-10-29T22:44:19.267Z,100715.14
2022-10-29T22:49:22.430Z,100702.85
2022-10-29T22:54:25.502Z,100698.58
2022-10-29T22:59:28.647Z,100707.85
2022-10-29T23:04:32.014Z,100705.95
2022-10-29T23:09:52.964Z,100712.23
2022-10-29T23:14:56.622Z,100715.39
2022-10-29T23:19:59.767Z,100718.08
2022-10-29T23:25:02.926Z,100715.32
2022-10-29T23:30:06.575Z,100713.37
2022-10-29T23:35:09.737Z,100711.31
2022-10-29T23:40:15.675Z,100703.02
2022-10-29T23:45:37.214Z,100701.46
2022-10-29T23:50:40.680Z,100713.08
2022-10-29T23:55:44.837Z,100714.16
